createdAt,value
2023-04-12T00:00:58.751Z,7.90
2023-04-12T00:03:27.224Z,7.80
2023-04-12T00:05:54.993Z,7.70
2023-04-12T00:08:26.695Z,7.70
2023-04-12T00:10:53.570Z,7.70
2023-04-12T00:13:20.478Z,7.60
2023-04-12T00:15:47.264Z,7.60
2023-04-12T00:18:14.102Z,7.50
2023-04-12T00:20:40.961Z,7.50
2023-04-12T00:23:09.636Z,7.50
2023-04-12T00:25:38.496Z,7.50
2023-04-12T00:28:06.281Z,7.40
2023-04-12T00:30:33.158Z,7.40
2023-04-12T00:32:59.990Z,7.40
2023-04-12T00:35:26.835Z,7.30
2023-04-12T00:37:54.700Z,7.30
2023-04-12T00:40:21.429Z,7.30
2023-04-12T00:42:48.534Z,7.40
2023-04-12T00:45:15.555Z,7.30
2023-04-12T00:47:43.333Z,7.20
2023-04-12T00:50:10.792Z,7.20
2023-04-12T00:52:37.981Z,7.20
2023-04-12T00:55:05.549Z,7.20
2023-04-12T00:57:36.693Z,7.20
2023-04-12T01:00:12.311Z,7.10
2023-04-12T01:02:47.183Z,7.10
2023-04-12T01:05:15.064Z,7.00
2023-04-12T01:07:51.435Z,7.00
2023-04-12T01:10:27.366Z,7.00
2023-04-12T01:13:09.621Z,7.00
2023-04-12T01:15:39.764Z,7.00
2023-04-12T01:18:13.622Z,6.90
2023-04-12T01:21:10.982Z,6.90
2023-04-12T01:24:07.083Z,6.80
2023-04-12T01:26:39.973Z,6.80
2023-04-12T01:29:12.064Z,6.80
2023-04-12T01:31:58.396Z,6.80
2023-04-12T01:34:27.358Z,6.80
2023-04-12T01:36:55.711Z,6.80
2023-04-12T01:39:22.444Z,6.80
2023-04-12T01:41:49.306Z,6.80
2023-04-12T01:44:17.183Z,6.70
2023-04-12T01:46:47.973Z,6.70
2023-04-12T01:49:16.334Z,6.80
2023-04-12T01:52:01.754Z,6.80
2023-04-12T01:54:30.756Z,6.70
2023-04-12T01:57:01.834Z,6.70
2023-04-12T01:59:41.186Z,6.70
2023-04-12T02:02:08.830Z,6.70
2023-04-12T02:04:36.063Z,6.70
2023-04-12T02:07:03.193Z,6.70
2023-04-12T02:09:30.558Z,6.70
2023-04-12T02:11:57.285Z,6.70
2023-04-12T02:14:24.000Z,6.70
2023-04-12T02:16:50.846Z,6.60
2023-04-12T02:19:17.681Z,6.70
2023-04-12T02:21:46.027Z,6.60
2023-04-12T02:24:13.137Z,6.60
2023-04-12T02:26:40.150Z,6.60
2023-04-12T02:29:09.178Z,6.60
2023-04-12T02:31:36.877Z,6.60
2023-04-12T02:34:03.626Z,6.60
2023-04-12T02:36:30.424Z,6.60
2023-04-12T02:38:57.235Z,6.60
2023-04-12T02:41:24.616Z,6.60
2023-04-12T02:43:51.439Z,6.60
2023-04-12T02:46:22.800Z,6.60
2023-04-12T02:48:50.344Z,6.60
2023-04-12T02:51:17.537Z,6.60
2023-04-12T02:53:44.330Z,6.60
2023-04-12T02:56:12.166Z,6.60
2023-04-12T02:58:39.154Z,6.60
2023-04-12T03:01:09.236Z,6.60
2023-04-12T03:03:36.702Z,6.60
2023-04-12T03:06:03.572Z,6.60
2023-04-12T03:08:30.662Z,6.50
2023-04-12T03:10:57.726Z,6.50
2023-04-12T03:13:24.796Z,6.50
2023-04-12T03:15:58.725Z,6.50
2023-04-12T03:18:25.858Z,6.50
2023-04-12T03:20:52.640Z,6.50
2023-04-12T03:23:20.241Z,6.50
2023-04-12T03:25:47.108Z,6.50
2023-04-12T03:28:13.890Z,6.50
2023-04-12T03:30:40.856Z,6.50
2023-04-12T03:33:07.759Z,6.50
2023-04-12T03:35:34.919Z,6.50
2023-04-12T03:38:01.787Z,6.50
2023-04-12T03:40:28.572Z,6.50
2023-04-12T03:42:55.369Z,6.50
2023-04-12T03:45:22.097Z,6.40
2023-04-12T03:47:48.897Z,6.40
2023-04-12T03:50:15.708Z,6.50
2023-04-12T03:52:43.544Z,6.50
2023-04-12T03:55:11.988Z,6.50
2023-04-12T03:57:38.771Z,6.50
2023-04-12T04:00:08.292Z,6.50
2023-04-12T04:02:35.177Z,6.50
2023-04-12T04:05:02.539Z,6.50
2023-04-12T04:07:29.357Z,6.50
2023-04-12T04:09:56.280Z,6.50
2023-04-12T04:12:23.257Z,6.50
2023-04-12T04:14:50.017Z,6.50
2023-04-12T04:17:17.023Z,6.50
2023-04-12T04:19:43.819Z,6.50
2023-04-12T04:22:12.402Z,6.50
2023-04-12T04:24:39.425Z,6.50
2023-04-12T04:27:06.488Z,7.40
2023-04-12T04:29:33.960Z,6.50
2023-04-12T04:32:01.455Z,6.50
2023-04-12T04:34:28.599Z,6.50
2023-04-12T04:36:55.485Z,6.50
2023-04-12T04:39:22.850Z,6.50
2023-04-12T04:41:54.614Z,6.50
2023-04-12T04:44:21.926Z,6.50
2023-04-12T04:46:49.166Z,6.50
2023-04-12T04:49:16.364Z,6.50
2023-04-12T04:51:43.190Z,6.50
2023-04-12T04:54:10.443Z,6.50
2023-04-12T04:56:37.226Z,6.50
2023-04-12T04:59:04.006Z,6.50
2023-04-12T05:01:32.014Z,6.50
2023-04-12T05:03:58.974Z,6.50
2023-04-12T05:06:25.860Z,6.50
2023-04-12T05:08:52.904Z,6.50
2023-04-12T05:11:20.602Z,6.50
2023-04-12T05:13:47.368Z,6.50
2023-04-12T05:16:14.193Z,8.00
2023-04-12T05:18:41.145Z,6.60
2023-04-12T05:21:07.957Z,6.50
2023-04-12T05:23:37.359Z,6.50
2023-04-12T05:26:04.765Z,6.60
2023-04-12T05:28:31.564Z,6.60
2023-04-12T05:30:58.618Z,6.60
2023-04-12T05:33:25.888Z,6.60
2023-04-12T05:35:52.776Z,6.70
2023-04-12T05:38:19.570Z,6.60
2023-04-12T05:40:46.346Z,6.70
2023-04-12T05:43:13.260Z,6.70
2023-04-12T05:45:41.531Z,6.70
2023-04-12T05:48:08.907Z,6.80
2023-04-12T05:50:36.318Z,6.80
2023-04-12T05:53:03.576Z,6.80
2023-04-12T05:55:30.514Z,6.80
2023-04-12T05:57:58.686Z,6.80
2023-04-12T06:00:26.364Z,6.80
2023-04-12T06:02:53.614Z,6.80
2023-04-12T06:05:20.627Z,6.90
2023-04-12T06:07:48.299Z,6.90
2023-04-12T06:10:17.023Z,6.90
2023-04-12T06:12:43.937Z,6.90
2023-04-12T06:15:11.434Z,6.90
2023-04-12T06:17:38.485Z,6.90
2023-04-12T06:20:08.247Z,7.00
2023-04-12T06:22:35.480Z,7.00
2023-04-12T06:25:02.427Z,7.00
2023-04-12T06:27:29.680Z,7.00
2023-04-12T06:29:56.666Z,7.00
2023-04-12T06:32:23.575Z,7.10
2023-04-12T06:34:50.449Z,7.10
2023-04-12T06:37:17.232Z,7.10
2023-04-12T06:39:43.940Z,7.10
2023-04-12T06:42:12.095Z,7.20
2023-04-12T06:44:40.816Z,7.20
2023-04-12T06:47:07.734Z,7.30
2023-04-12T06:49:34.695Z,7.30
2023-04-12T06:52:01.469Z,7.30
2023-04-12T06:54:28.253Z,7.30
2023-04-12T06:56:54.992Z,7.40
2023-04-12T06:59:21.753Z,7.40
2023-04-12T07:01:48.570Z,7.50
2023-04-12T07:04:16.867Z,7.50
2023-04-12T07:06:43.740Z,7.60
2023-04-12T07:09:10.599Z,9.20
2023-04-12T07:11:37.510Z,7.70
2023-04-12T07:14:04.285Z,7.70
2023-04-12T07:16:34.123Z,8.50
2023-04-12T07:19:01.142Z,7.70
2023-04-12T07:21:28.222Z,7.80
2023-04-12T07:23:55.865Z,7.80
2023-04-12T07:26:23.036Z,7.80
2023-04-12T07:28:49.901Z,7.80
2023-04-12T07:31:16.682Z,7.80
2023-04-12T07:33:43.917Z,7.90
2023-04-12T07:36:11.921Z,7.90
2023-04-12T07:38:38.795Z,7.90
2023-04-12T07:41:05.999Z,7.90
2023-04-12T07:43:32.842Z,7.90
2023-04-12T07:46:00.055Z,8.00
2023-04-12T07:48:26.914Z,8.00
2023-04-12T07:50:53.713Z,8.00
2023-04-12T07:53:26.190Z,8.00
2023-04-12T07:55:53.687Z,8.10
2023-04-12T07:58:22.046Z,8.10
2023-04-12T08:00:49.134Z,8.00
2023-04-12T08:03:17.612Z,8.10
2023-04-12T08:05:45.095Z,8.20
2023-04-12T08:08:12.320Z,8.20
2023-04-12T08:10:39.708Z,8.20
2023-04-12T08:13:07.142Z,8.20
2023-04-12T08:15:34.158Z,8.20
2023-04-12T08:18:02.494Z,8.30
2023-04-12T08:20:29.605Z,8.60
2023-04-12T08:22:56.467Z,8.30
2023-04-12T08:25:24.415Z,8.30
2023-04-12T08:27:51.705Z,8.40
2023-04-12T08:30:19.172Z,8.40
2023-04-12T08:32:46.197Z,8.50
2023-04-12T08:35:14.364Z,8.50
2023-04-12T08:37:41.197Z,8.60
2023-04-12T08:40:09.255Z,8.60
2023-04-12T08:42:37.290Z,8.70
2023-04-12T08:45:06.171Z,8.70
2023-04-12T08:47:34.740Z,8.70
2023-04-12T08:50:02.848Z,8.70
2023-04-12T08:52:30.555Z,8.70
2023-04-12T08:54:57.286Z,8.70
2023-04-12T08:57:24.585Z,8.70
2023-04-12T08:59:52.748Z,8.70
2023-04-12T09:02:19.627Z,9.20
2023-04-12T09:04:50.681Z,8.80
2023-04-12T09:07:17.637Z,8.90
2023-04-12T09:09:46.678Z,8.90
2023-04-12T09:12:14.297Z,9.00
2023-04-12T09:14:44.679Z,9.00
2023-04-12T09:17:25.880Z,9.10
2023-04-12T09:19:53.487Z,9.20
2023-04-12T09:22:31.180Z,9.20
2023-04-12T09:24:57.912Z,9.20
2023-04-12T09:27:25.347Z,9.30
2023-04-12T09:29:53.017Z,9.30
2023-04-12T09:32:29.016Z,9.30
2023-04-12T09:35:06.564Z,9.30
2023-04-12T09:37:33.386Z,9.40
2023-04-12T09:40:04.889Z,9.40
2023-04-12T09:42:34.709Z,9.40
2023-04-12T09:45:21.916Z,9.40
2023-04-12T09:47:48.784Z,9.40
2023-04-12T09:50:29.533Z,9.40
2023-04-12T09:52:57.234Z,9.40
2023-04-12T09:55:25.630Z,9.50
2023-04-12T09:57:54.277Z,9.60
2023-04-12T10:00:26.878Z,9.70
2023-04-12T10:02:55.670Z,9.70
2023-04-12T10:05:28.165Z,9.80
2023-04-12T10:07:55.535Z,9.90
2023-04-12T10:10:23.217Z,10.00
2023-04-12T10:12:50.607Z,10.20
2023-04-12T10:15:18.227Z,10.30
2023-04-12T10:17:47.870Z,10.40
2023-04-12T10:20:16.839Z,10.40
2023-04-12T10:22:45.998Z,10.50
2023-04-12T10:25:15.251Z,10.60
2023-04-12T10:27:43.643Z,10.60
2023-04-12T10:30:25.070Z,10.70
2023-04-12T10:33:10.176Z,10.80
2023-04-12T10:36:10.834Z,10.90
2023-04-12T10:38:47.539Z,11.10
2023-04-12T10:41:16.731Z,11.20
2023-04-12T10:43:45.362Z,11.30
2023-04-12T10:46:37.448Z,11.40
2023-04-12T10:49:17.694Z,11.40
2023-04-12T10:52:05.642Z,11.40
2023-04-12T10:54:36.947Z,11.40
2023-04-12T10:57:04.300Z,11.40
2023-04-12T10:59:50.886Z,11.40
2023-04-12T11:02:17.885Z,11.40
2023-04-12T11:05:04.548Z,11.40
2023-04-12T11:07:42.161Z,11.50
2023-04-12T11:10:16.701Z,11.50
2023-04-12T11:12:51.127Z,11.40
2023-04-12T11:15:18.419Z,11.40
2023-04-12T11:17:54.507Z,11.50
2023-04-12T11:20:21.439Z,11.70
2023-04-12T11:22:50.785Z,11.80
2023-04-12T11:25:18.138Z,12.00
2023-04-12T11:27:52.093Z,12.10
2023-04-12T11:30:20.050Z,12.10
2023-04-12T11:32:47.541Z,12.10
2023-04-12T11:35:20.323Z,12.20
2023-04-12T11:37:47.576Z,12.20
2023-04-12T11:40:14.730Z,12.30
2023-04-12T11:42:41.642Z,12.30
2023-04-12T11:45:15.862Z,12.20
2023-04-12T11:47:45.657Z,12.10
2023-04-12T11:50:12.548Z,11.90
2023-04-12T11:52:41.079Z,11.70
2023-04-12T11:55:11.010Z,11.60
2023-04-12T11:57:38.969Z,11.50
2023-04-12T12:00:06.919Z,11.50
2023-04-12T12:02:41.050Z,11.50
2023-04-12T12:05:13.518Z,12.30
2023-04-12T12:07:40.592Z,11.60
2023-04-12T12:10:08.104Z,11.60
2023-04-12T12:12:35.197Z,11.70
2023-04-12T12:15:02.339Z,11.70
2023-04-12T12:17:29.244Z,11.70
2023-04-12T12:19:58.221Z,11.80
2023-04-12T12:22:24.943Z,11.90
2023-04-12T12:25:01.594Z,12.30
2023-04-12T12:27:37.541Z,12.70
2023-04-12T12:30:06.942Z,12.90
2023-04-12T12:32:37.706Z,13.00
2023-04-12T12:35:09.595Z,13.10
2023-04-12T12:37:36.787Z,13.10
2023-04-12T12:40:07.457Z,13.00
2023-04-12T12:42:34.788Z,13.00
2023-04-12T12:45:01.919Z,12.90
2023-04-12T12:47:29.018Z,12.80
2023-04-12T12:49:56.053Z,13.70
2023-04-12T12:52:22.805Z,12.70
2023-04-12T12:54:49.529Z,12.60
2023-04-12T12:57:16.574Z,12.60
2023-04-12T12:59:43.286Z,12.70
2023-04-12T13:02:10.092Z,12.80
2023-04-12T13:04:37.036Z,13.00
2023-04-12T13:07:04.049Z,13.10
2023-04-12T13:09:31.645Z,13.60
2023-04-12T13:11:58.406Z,13.60
2023-04-12T13:14:25.229Z,14.60
2023-04-12T13:16:52.481Z,13.60
2023-04-12T13:19:19.398Z,13.60
2023-04-12T13:21:46.174Z,13.80
2023-04-12T13:24:12.980Z,14.00
2023-04-12T13:26:40.448Z,14.10
2023-04-12T13:29:07.248Z,14.20
2023-04-12T13:31:34.058Z,14.20
2023-04-12T13:34:00.937Z,14.30
2023-04-12T13:36:27.886Z,14.20
2023-04-12T13:38:54.755Z,14.20
2023-04-12T13:41:21.499Z,14.10
2023-04-12T13:43:48.252Z,14.10
2023-04-12T13:46:15.071Z,14.00
2023-04-12T13:48:41.879Z,14.00
2023-04-12T13:51:09.531Z,14.20
2023-04-12T13:53:36.774Z,13.90
2023-04-12T13:56:03.623Z,13.90
2023-04-12T13:58:30.402Z,13.70
2023-04-12T14:00:59.441Z,13.40
2023-04-12T14:03:26.580Z,13.20
2023-04-12T14:05:53.490Z,13.20
2023-04-12T14:08:20.235Z,13.20
2023-04-12T14:10:47.068Z,13.20
2023-04-12T14:13:13.835Z,13.30
2023-04-12T14:15:40.725Z,13.40
2023-04-12T14:18:07.533Z,13.50
2023-04-12T14:20:34.389Z,13.80
2023-04-12T14:23:01.216Z,13.60
2023-04-12T14:25:27.996Z,13.70
2023-04-12T14:27:54.726Z,13.80
2023-04-12T14:30:21.499Z,13.70
2023-04-12T14:32:49.442Z,13.60
2023-04-12T14:35:16.810Z,13.40
2023-04-12T14:37:43.794Z,13.20
2023-04-12T14:40:10.713Z,13.80
2023-04-12T14:42:37.725Z,12.40
2023-04-12T14:45:07.938Z,11.70
2023-04-12T14:47:34.743Z,10.80
2023-04-12T14:50:02.507Z,10.00
2023-04-12T14:52:29.344Z,9.40
2023-04-12T14:54:56.042Z,9.00
2023-04-12T14:57:23.195Z,8.70
2023-04-12T14:59:50.944Z,8.40
2023-04-12T15:02:17.934Z,8.20
2023-04-12T15:04:47.469Z,8.10
2023-04-12T15:07:14.223Z,8.00
2023-04-12T15:09:40.945Z,7.90
2023-04-12T15:12:08.434Z,7.90
2023-04-12T15:14:35.423Z,7.90
2023-04-12T15:17:02.195Z,8.00
2023-04-12T15:19:28.979Z,7.50
2023-04-12T15:21:55.790Z,8.30
2023-04-12T15:24:23.232Z,8.40
2023-04-12T15:26:51.571Z,8.50
2023-04-12T15:29:19.849Z,8.50
2023-04-12T15:31:46.922Z,8.40
2023-04-12T15:34:14.305Z,8.50
2023-04-12T15:36:43.195Z,8.60
2023-04-12T15:39:11.356Z,8.60
2023-04-12T15:41:39.794Z,8.80
2023-04-12T15:44:08.373Z,8.90
2023-04-12T15:46:35.848Z,9.10
2023-04-12T15:49:04.129Z,9.10
2023-04-12T15:51:32.333Z,9.10
2023-04-12T15:53:59.524Z,9.10
2023-04-12T15:56:26.415Z,9.20
2023-04-12T15:58:56.069Z,9.20
2023-04-12T16:01:26.082Z,9.30
2023-04-12T16:03:53.252Z,9.30
2023-04-12T16:06:20.753Z,9.30
2023-04-12T16:08:48.978Z,9.30
2023-04-12T16:11:17.105Z,9.20
2023-04-12T16:13:45.543Z,10.30
2023-04-12T16:16:13.337Z,9.00
2023-04-12T16:18:41.502Z,8.90
2023-04-12T16:21:09.070Z,8.90
2023-04-12T16:23:37.833Z,8.90
2023-04-12T16:26:05.768Z,8.90
2023-04-12T16:28:33.409Z,9.00
2023-04-12T16:31:00.392Z,8.90
2023-04-12T16:33:27.913Z,8.80
2023-04-12T16:35:54.641Z,8.80
2023-04-12T16:38:21.437Z,8.80
2023-04-12T16:40:48.271Z,8.80
2023-04-12T16:43:15.543Z,8.80
2023-04-12T16:45:45.556Z,8.80
2023-04-12T16:48:15.713Z,8.70
2023-04-12T16:50:44.914Z,8.80
2023-04-12T16:53:11.949Z,8.80
2023-04-12T16:55:44.000Z,8.90
2023-04-12T16:58:14.330Z,8.90
2023-04-12T17:00:43.162Z,8.90
2023-04-12T17:03:12.579Z,8.80
2023-04-12T17:05:42.776Z,8.70
2023-04-12T17:08:09.846Z,8.70
2023-04-12T17:10:37.334Z,8.70
2023-04-12T17:13:04.664Z,8.60
2023-04-12T17:15:31.519Z,8.50
2023-04-12T17:18:09.704Z,8.50
2023-04-12T17:20:37.360Z,8.40
2023-04-12T17:23:05.037Z,8.40
2023-04-12T17:25:32.012Z,8.40
2023-04-12T17:28:03.080Z,8.40
2023-04-12T17:30:30.057Z,8.40
2023-04-12T17:32:57.651Z,8.40
2023-04-12T17:35:24.499Z,8.40
2023-04-12T17:37:51.392Z,8.40
2023-04-12T17:40:18.472Z,8.30
2023-04-12T17:42:45.296Z,8.30
2023-04-12T17:45:14.421Z,8.30
2023-04-12T17:47:41.943Z,8.30
2023-04-12T17:50:10.502Z,8.30
2023-04-12T17:52:37.442Z,8.30
2023-04-12T17:55:09.864Z,8.30
2023-04-12T17:57:36.722Z,8.30
2023-04-12T18:00:05.587Z,8.20
2023-04-12T18:02:32.575Z,8.20
2023-04-12T18:04:59.496Z,8.20
2023-04-12T18:07:27.169Z,8.20
2023-04-12T18:09:54.507Z,8.10
2023-04-12T18:12:21.473Z,8.00
2023-04-12T18:14:48.601Z,8.00
2023-04-12T18:17:15.385Z,7.90
2023-04-12T18:19:42.087Z,7.90
2023-04-12T18:22:08.817Z,7.90
2023-04-12T18:24:36.519Z,7.80
2023-04-12T18:27:05.313Z,7.80
2023-04-12T18:29:32.874Z,7.80
2023-04-12T18:32:00.014Z,7.80
2023-04-12T18:34:27.544Z,7.80
2023-04-12T18:36:54.401Z,7.70
2023-04-12T18:39:21.121Z,7.80
2023-04-12T18:41:47.894Z,7.70
2023-04-12T18:44:15.539Z,7.70
2023-04-12T18:46:42.401Z,7.70
2023-04-12T18:49:09.263Z,7.60
2023-04-12T18:51:36.262Z,7.60
2023-04-12T18:54:03.279Z,7.60
2023-04-12T18:56:30.116Z,7.60
2023-04-12T18:58:57.085Z,7.60
2023-04-12T19:01:25.097Z,7.60
2023-04-12T19:03:52.383Z,8.20
2023-04-12T19:06:19.392Z,7.60
2023-04-12T19:08:46.308Z,7.50
2023-04-12T19:11:13.208Z,7.50
2023-04-12T19:13:40.052Z,7.50
2023-04-12T19:16:07.902Z,7.50
2023-04-12T19:18:35.516Z,7.50
2023-04-12T19:21:03.506Z,7.50
2023-04-12T19:23:30.919Z,7.40
2023-04-12T19:25:59.816Z,7.50
2023-04-12T19:28:27.244Z,7.50
2023-04-12T19:30:54.257Z,7.40
2023-04-12T19:33:21.209Z,8.00
2023-04-12T19:35:48.105Z,7.90
2023-04-12T19:38:15.792Z,7.50
2023-04-12T19:40:43.095Z,7.50
2023-04-12T19:43:09.961Z,7.50
2023-04-12T19:45:36.752Z,7.50
2023-04-12T19:48:03.648Z,7.60
2023-04-12T19:50:31.105Z,7.60
2023-04-12T19:52:57.914Z,7.60
2023-04-12T19:55:25.939Z,7.60
2023-04-12T19:57:53.136Z,8.50
2023-04-12T20:00:20.674Z,7.60
2023-04-12T20:02:49.293Z,7.60
2023-04-12T20:05:16.836Z,7.50
2023-04-12T20:07:44.186Z,7.40
2023-04-12T20:10:11.885Z,7.10
2023-04-12T20:12:39.153Z,7.00
2023-04-12T20:15:08.691Z,6.80
2023-04-12T20:17:36.003Z,6.80
2023-04-12T20:20:07.757Z,6.70
2023-04-12T20:22:35.523Z,6.60
2023-04-12T20:25:02.305Z,6.60
2023-04-12T20:27:30.987Z,6.50
2023-04-12T20:29:59.057Z,6.50
2023-04-12T20:32:26.043Z,6.50
2023-04-12T20:34:52.784Z,6.50
2023-04-12T20:37:19.986Z,6.50
2023-04-12T20:39:46.688Z,6.50
2023-04-12T20:42:16.061Z,6.40
2023-04-12T20:44:42.787Z,6.40
2023-04-12T20:47:09.987Z,6.40
2023-04-12T20:49:36.747Z,6.40
2023-04-12T20:52:04.250Z,6.40
2023-04-12T20:54:31.715Z,6.40
2023-04-12T20:56:59.879Z,6.40
2023-04-12T20:59:30.295Z,6.40
2023-04-12T21:01:58.380Z,6.30
2023-04-12T21:04:27.755Z,6.30
2023-04-12T21:06:57.958Z,6.30
2023-04-12T21:09:25.055Z,6.30
2023-04-12T21:11:56.119Z,6.40
2023-04-12T21:14:22.878Z,6.40
2023-04-12T21:16:49.794Z,6.40
2023-04-12T21:19:18.155Z,6.40
2023-04-12T21:21:45.940Z,6.40
2023-04-12T21:24:13.204Z,6.40
2023-04-12T21:26:40.775Z,6.40
2023-04-12T21:29:07.528Z,6.40
2023-04-12T21:31:34.290Z,6.40
2023-04-12T21:34:01.852Z,6.50
2023-04-12T21:36:28.849Z,6.40
2023-04-12T21:38:56.444Z,6.40
2023-04-12T21:41:25.092Z,6.40
2023-04-12T21:43:52.324Z,6.40
2023-04-12T21:46:19.558Z,6.40
2023-04-12T21:48:46.461Z,6.40
2023-04-12T21:51:13.205Z,6.40
2023-04-12T21:53:39.972Z,6.40
2023-04-12T21:56:07.190Z,6.40
2023-04-12T21:58:34.204Z,6.40
2023-04-12T22:01:01.250Z,6.30
2023-04-12T22:03:28.529Z,6.30
2023-04-12T22:06:04.107Z,6.30
2023-04-12T22:08:33.009Z,6.30
2023-04-12T22:11:00.224Z,6.20
2023-04-12T22:13:27.309Z,6.20
2023-04-12T22:15:54.002Z,6.20
2023-04-12T22:18:20.721Z,7.60
2023-04-12T22:20:47.943Z,6.10
2023-04-12T22:23:18.056Z,6.00
2023-04-12T22:25:46.015Z,6.00
2023-04-12T22:28:12.782Z,5.90
2023-04-12T22:30:39.745Z,5.90
2023-04-12T22:33:08.336Z,5.90
2023-04-12T22:35:36.483Z,5.90
2023-04-12T22:38:04.140Z,5.90
2023-04-12T22:40:30.992Z,5.90
2023-04-12T22:42:58.132Z,5.90
2023-04-12T22:45:25.165Z,5.80
2023-04-12T22:47:52.914Z,5.80
2023-04-12T22:50:20.145Z,5.80
2023-04-12T22:52:49.598Z,5.90
2023-04-12T22:55:17.960Z,5.80
2023-04-12T22:57:44.951Z,5.80
2023-04-12T23:00:16.997Z,5.80
2023-04-12T23:02:45.994Z,5.80
2023-04-12T23:05:13.933Z,5.80
2023-04-12T23:07:41.495Z,5.80
2023-04-12T23:10:09.007Z,5.80
2023-04-12T23:12:37.397Z,5.70
2023-04-12T23:15:06.347Z,5.70
2023-04-12T23:17:33.866Z,5.70
2023-04-12T23:20:01.849Z,5.70
2023-04-12T23:22:55.044Z,5.70
2023-04-12T23:25:38.918Z,5.70
2023-04-12T23:28:19.355Z,5.60
2023-04-12T23:30:48.913Z,5.60
2023-04-12T23:33:18.193Z,5.60
2023-04-12T23:36:02.700Z,5.60
2023-04-12T23:38:33.608Z,5.60
2023-04-12T23:41:05.637Z,5.60
2023-04-12T23:43:33.114Z,5.50
2023-04-12T23:46:00.754Z,5.50
2023-04-12T23:48:28.010Z,5.50
2023-04-12T23:50:54.830Z,5.40
2023-04-12T23:53:22.439Z,5.40
2023-04-12T23:55:51.066Z,5.30
2023-04-12T23:58:19.412Z,5.30
